createdAt,value
2018-12-12T00:01:27.295Z,21.67
2018-12-12T00:03:57.385Z,19.63
2018-12-12T00:06:28.635Z,20.67
2018-12-12T00:08:59.375Z,18.70
2018-12-12T00:11:29.266Z,18.47
2018-12-12T00:13:59.308Z,17.43
2018-12-12T00:16:29.828Z,19.93
2018-12-12T00:18:59.650Z,17.53
2018-12-12T00:21:30.055Z,20.80
2018-12-12T00:24:01.420Z,18.93
2018-12-12T00:26:32.379Z,18.70
2018-12-12T00:29:02.783Z,17.73
2018-12-12T00:31:33.319Z,20.47
2018-12-12T00:34:03.845Z,18.30
2018-12-12T00:36:33.957Z,19.60
2018-12-12T00:39:10.012Z,18.57
2018-12-12T00:41:40.457Z,18.17
2018-12-12T00:44:13.541Z,17.83
2018-12-12T00:46:44.068Z,18.40
2018-12-12T00:49:15.002Z,19.03
2018-12-12T00:51:44.012Z,18.87
2018-12-12T00:54:15.949Z,17.57
2018-12-12T00:56:46.374Z,20.23
2018-12-12T00:59:17.415Z,22.27
2018-12-12T01:01:48.981Z,20.40
2018-12-12T01:04:21.335Z,18.97
2018-12-12T01:06:51.147Z,16.67
2018-12-12T01:09:21.308Z,16.57
2018-12-12T01:11:55.996Z,15.90
2018-12-12T01:14:27.035Z,13.30
2018-12-12T01:16:58.400Z,14.33
2018-12-12T01:19:28.037Z,15.57
2018-12-12T01:22:00.985Z,15.33
2018-12-12T01:24:31.496Z,14.30
2018-12-12T01:27:03.055Z,15.00
2018-12-12T01:29:34.706Z,16.00
2018-12-12T01:32:06.347Z,17.47
2018-12-12T01:34:38.411Z,14.23
2018-12-12T01:37:08.962Z,15.37
2018-12-12T01:39:39.704Z,15.13
2018-12-12T01:42:11.864Z,14.43
2018-12-12T01:44:42.593Z,13.87
2018-12-12T01:47:12.917Z,14.13
2018-12-12T01:49:42.926Z,13.93
2018-12-12T01:52:14.372Z,16.03
2018-12-12T01:54:45.110Z,15.67
2018-12-12T01:57:16.155Z,15.00
2018-12-12T01:59:47.299Z,13.90
2018-12-12T02:02:17.940Z,15.83
2018-12-12T02:04:48.262Z,15.20
2018-12-12T02:07:18.907Z,12.17
2018-12-12T02:09:48.924Z,15.47
2018-12-12T02:12:18.908Z,14.50
2018-12-12T02:14:48.844Z,15.80
2018-12-12T02:17:18.973Z,13.13
2018-12-12T02:19:48.961Z,14.60
2018-12-12T02:22:19.283Z,16.77
2018-12-12T02:24:50.032Z,14.27
2018-12-12T02:27:20.052Z,15.83
2018-12-12T02:29:50.156Z,14.50
2018-12-12T02:32:20.778Z,14.70
2018-12-12T02:34:50.998Z,16.13
2018-12-12T02:37:21.445Z,16.93
2018-12-12T02:39:51.044Z,14.30
2018-12-12T02:42:21.053Z,15.17
2018-12-12T02:44:54.304Z,15.40
2018-12-12T02:47:24.059Z,15.63
2018-12-12T02:49:53.974Z,15.77
2018-12-12T02:52:23.876Z,17.30
2018-12-12T02:54:54.045Z,16.23
2018-12-12T02:57:23.937Z,15.40
2018-12-12T02:59:54.067Z,16.93
2018-12-12T03:02:23.962Z,15.20
2018-12-12T03:04:53.855Z,15.53
2018-12-12T03:07:23.689Z,17.03
2018-12-12T03:09:53.808Z,17.10
2018-12-12T03:12:24.417Z,17.17
2018-12-12T03:14:54.131Z,20.53
2018-12-12T03:17:24.361Z,17.10
2018-12-12T03:19:54.597Z,17.47
2018-12-12T03:22:24.910Z,19.57
2018-12-12T03:24:54.837Z,18.27
2018-12-12T03:27:25.047Z,18.57
2018-12-12T03:29:54.847Z,18.87
2018-12-12T03:32:24.978Z,18.13
2018-12-12T03:34:54.845Z,18.90
2018-12-12T03:37:24.796Z,21.90
2018-12-12T03:39:57.906Z,18.80
2018-12-12T03:42:28.631Z,19.93
2018-12-12T03:44:58.424Z,18.63
2018-12-12T03:47:29.064Z,19.10
2018-12-12T03:49:59.597Z,19.70
2018-12-12T03:52:29.830Z,19.67
2018-12-12T03:54:59.536Z,17.93
2018-12-12T03:57:29.320Z,19.60
2018-12-12T03:59:59.258Z,19.33
2018-12-12T04:02:29.778Z,19.07
2018-12-12T04:05:03.583Z,21.07
2018-12-12T04:07:33.480Z,20.20
2018-12-12T04:10:03.937Z,21.07
2018-12-12T04:12:33.854Z,25.93
2018-12-12T04:15:04.185Z,21.30
2018-12-12T04:17:34.388Z,52.60
2018-12-12T04:20:04.314Z,27.87
2018-12-12T04:22:34.711Z,46.50
2018-12-12T04:25:05.061Z,36.63
2018-12-12T04:27:34.847Z,42.20
2018-12-12T04:30:06.038Z,33.60
2018-12-12T04:32:37.043Z,39.97
2018-12-12T04:35:07.068Z,45.03
2018-12-12T04:37:36.976Z,31.47
2018-12-12T04:40:06.695Z,58.80
2018-12-12T04:42:36.073Z,49.07
2018-12-12T04:45:06.004Z,89.10
2018-12-12T04:47:36.018Z,39.53
2018-12-12T04:50:05.934Z,36.60
2018-12-12T04:52:35.827Z,37.40
2018-12-12T04:55:06.002Z,44.50
2018-12-12T04:57:36.297Z,52.07
2018-12-12T05:00:06.311Z,39.50
2018-12-12T05:02:36.423Z,40.40
2018-12-12T05:05:06.119Z,38.37
2018-12-12T05:07:35.943Z,39.53
2018-12-12T05:10:06.058Z,37.53
2018-12-12T05:12:36.168Z,50.23
2018-12-12T05:15:06.806Z,41.33
2018-12-12T05:17:36.829Z,53.10
2018-12-12T05:20:07.457Z,44.80
2018-12-12T05:22:37.793Z,36.00
2018-12-12T05:25:08.418Z,34.80
2018-12-12T05:27:38.827Z,37.60
2018-12-12T05:30:09.057Z,35.17
2018-12-12T05:32:39.485Z,34.60
2018-12-12T05:35:09.598Z,35.80
2018-12-12T05:37:39.917Z,34.00
2018-12-12T05:40:10.543Z,35.90
2018-12-12T05:42:40.354Z,32.47
2018-12-12T05:45:10.273Z,34.63
2018-12-12T05:47:40.068Z,35.70
2018-12-12T05:50:10.199Z,33.10
2018-12-12T05:52:40.521Z,35.73
2018-12-12T05:55:10.547Z,37.23
2018-12-12T05:57:40.560Z,39.20
2018-12-12T06:00:12.054Z,38.27
2018-12-12T06:02:42.038Z,36.23
2018-12-12T06:05:11.958Z,43.00
2018-12-12T06:07:43.346Z,37.37
2018-12-12T06:10:13.659Z,39.30
2018-12-12T06:12:43.829Z,37.90
2018-12-12T06:15:13.544Z,36.40
2018-12-12T06:17:44.058Z,42.37
2018-12-12T06:20:14.007Z,44.37
2018-12-12T06:22:44.218Z,38.13
2018-12-12T06:25:14.039Z,39.27
2018-12-12T06:27:44.122Z,41.10
2018-12-12T06:30:14.151Z,50.10
2018-12-12T06:32:43.996Z,40.77
2018-12-12T06:35:14.490Z,43.67
2018-12-12T06:37:45.977Z,48.27
2018-12-12T06:40:15.855Z,48.37
2018-12-12T06:42:46.382Z,51.87
2018-12-12T06:45:16.820Z,45.47
2018-12-12T06:47:46.516Z,45.20
2018-12-12T06:50:16.842Z,43.47
2018-12-12T06:52:48.402Z,46.70
2018-12-12T06:55:19.330Z,48.30
2018-12-12T06:57:49.548Z,49.03
2018-12-12T07:00:19.777Z,47.50
2018-12-12T07:02:49.483Z,49.07
2018-12-12T07:05:19.517Z,51.10
2018-12-12T07:07:50.026Z,51.67
2018-12-12T07:10:20.660Z,53.30
2018-12-12T07:12:51.905Z,50.37
2018-12-12T07:15:22.958Z,54.13
2018-12-12T07:17:53.696Z,49.43
2018-12-12T07:20:24.430Z,54.80
2018-12-12T07:22:54.642Z,53.57
2018-12-12T07:25:24.758Z,50.83
2018-12-12T07:27:54.897Z,51.93
2018-12-12T07:30:24.998Z,55.17
2018-12-12T07:32:54.695Z,51.27
2018-12-12T07:35:24.510Z,51.63
2018-12-12T07:37:54.423Z,54.87
2018-12-12T07:40:24.233Z,52.33
2018-12-12T07:42:54.251Z,48.37
2018-12-12T07:45:24.998Z,50.53
2018-12-12T07:48:01.268Z,47.40
2018-12-12T07:50:27.270Z,48.87
2018-12-12T07:52:57.920Z,45.60
2018-12-12T07:55:28.037Z,48.73
2018-12-12T07:58:00.395Z,51.63
2018-12-12T08:00:30.417Z,50.07
2018-12-12T08:03:05.440Z,48.63
2018-12-12T08:05:34.478Z,51.83
2018-12-12T08:08:06.197Z,53.77
2018-12-12T08:10:37.251Z,55.27
2018-12-12T08:13:07.868Z,51.27
2018-12-12T08:15:38.291Z,58.03
2018-12-12T08:18:08.306Z,54.60
2018-12-12T08:20:39.167Z,54.87
2018-12-12T08:23:10.038Z,55.13
2018-12-12T08:25:40.407Z,59.23
2018-12-12T08:28:10.831Z,59.83
2018-12-12T08:30:41.286Z,59.03
2018-12-12T08:33:12.918Z,62.00
2018-12-12T08:35:43.234Z,58.10
2018-12-12T08:38:16.237Z,63.27
2018-12-12T08:40:47.057Z,64.57
2018-12-12T08:43:16.867Z,66.30
2018-12-12T08:45:46.778Z,71.17
2018-12-12T08:48:17.419Z,61.87
2018-12-12T08:50:47.958Z,82.67
2018-12-12T08:53:18.277Z,94.93
2018-12-12T08:55:48.405Z,81.33
2018-12-12T08:58:18.955Z,84.53
2018-12-12T09:00:52.219Z,79.73
2018-12-12T09:03:22.437Z,71.37
2018-12-12T09:05:52.784Z,70.33
2018-12-12T09:08:22.878Z,68.37
2018-12-12T09:10:56.179Z,64.60
2018-12-12T09:14:01.946Z,60.47
2018-12-12T10:07:48.777Z,53.37
2018-12-12T10:10:18.998Z,47.43
2018-12-12T10:12:48.888Z,50.93
2018-12-12T10:15:18.517Z,47.80
2018-12-12T10:17:51.791Z,52.00
2018-12-12T10:20:23.352Z,42.43
2018-12-12T10:22:55.101Z,44.37
2018-12-12T10:25:25.940Z,36.80
2018-12-12T10:27:56.166Z,37.07
2018-12-12T10:30:26.889Z,23.03
2018-12-12T10:32:58.446Z,21.60
2018-12-12T10:35:29.377Z,23.80
2018-12-12T10:38:01.557Z,26.27
2018-12-12T10:40:33.057Z,24.57
2018-12-12T10:43:04.349Z,25.93
2018-12-12T10:45:36.018Z,31.97
2018-12-12T10:48:06.040Z,40.87
2018-12-12T10:50:35.937Z,38.90
2018-12-12T10:53:06.278Z,39.50
2018-12-12T10:55:36.269Z,40.27
2018-12-12T10:58:06.284Z,42.63
2018-12-12T11:00:43.067Z,66.03
2018-12-12T11:03:17.481Z,49.03
2018-12-12T11:05:47.598Z,47.27
2018-12-12T11:08:17.638Z,51.53
2018-12-12T11:10:48.142Z,50.30
2018-12-12T11:13:18.597Z,48.53
2018-12-12T11:15:49.506Z,51.87
2018-12-12T11:18:19.829Z,52.17
2018-12-12T11:20:50.277Z,47.90
2018-12-12T11:23:21.210Z,49.30
2018-12-12T11:25:51.102Z,46.53
2018-12-12T11:28:21.433Z,44.80
2018-12-12T11:30:51.346Z,48.33
2018-12-12T11:33:21.471Z,46.23
2018-12-12T11:35:51.483Z,43.13
2018-12-12T11:38:21.606Z,43.90
2018-12-12T11:40:51.718Z,48.60
2018-12-12T11:43:21.633Z,40.10
2018-12-12T11:45:51.660Z,38.33
2018-12-12T11:48:21.981Z,42.13
2018-12-12T11:50:51.997Z,43.40
2018-12-12T11:53:22.021Z,44.97
2018-12-12T11:55:51.929Z,44.07
2018-12-12T11:58:21.956Z,54.40
2018-12-12T12:00:53.489Z,51.10
2018-12-12T12:03:24.238Z,49.90
2018-12-12T12:05:55.390Z,48.43
2018-12-12T12:08:25.397Z,46.33
2018-12-12T12:10:55.912Z,45.53
2018-12-12T12:13:26.344Z,45.67
2018-12-12T12:15:56.578Z,49.77
2018-12-12T12:18:27.395Z,45.53
2018-12-12T12:20:57.936Z,43.00
2018-12-12T12:23:28.678Z,39.50
2018-12-12T12:25:58.998Z,38.70
2018-12-12T12:28:29.199Z,44.70
2018-12-12T12:30:59.526Z,38.77
2018-12-12T12:33:30.160Z,40.17
2018-12-12T12:36:00.481Z,37.33
2018-12-12T12:38:31.059Z,38.70
2018-12-12T12:41:01.337Z,38.13
2018-12-12T12:43:32.374Z,37.97
2018-12-12T12:46:02.917Z,39.30
2018-12-12T12:48:33.237Z,35.73
2018-12-12T12:51:03.977Z,37.33
2018-12-12T12:53:34.896Z,35.07
2018-12-12T12:56:05.436Z,35.03
2018-12-12T12:58:35.437Z,34.30
2018-12-12T13:01:05.678Z,33.10
2018-12-12T13:03:36.189Z,34.60
2018-12-12T13:06:07.340Z,32.90
2018-12-12T13:08:38.277Z,36.03
2018-12-12T13:11:14.704Z,38.10
2018-12-12T13:13:41.067Z,37.33
2018-12-12T13:16:12.524Z,37.57
2018-12-12T13:18:42.961Z,45.57
2018-12-12T13:21:13.687Z,37.93
2018-12-12T13:23:45.030Z,46.40
2018-12-12T13:26:14.845Z,42.73
2018-12-12T13:28:46.796Z,37.93
2018-12-12T13:31:16.817Z,40.87
2018-12-12T13:33:46.546Z,39.07
2018-12-12T13:36:20.048Z,37.47
2018-12-12T13:38:52.953Z,35.73
2018-12-12T14:00:21.939Z,35.53
2018-12-12T14:09:27.233Z,38.63
2018-12-12T14:12:22.979Z,43.27
2018-12-12T15:04:36.155Z,41.30
2018-12-12T15:35:15.483Z,48.80
2018-12-12T15:37:45.203Z,47.20
2018-12-12T15:40:15.043Z,46.20
2018-12-12T15:42:44.716Z,43.50
2018-12-12T15:45:14.844Z,43.40
2018-12-12T15:47:44.963Z,41.90
2018-12-12T15:50:14.996Z,47.13
2018-12-12T15:52:44.595Z,41.20
2018-12-12T15:55:16.443Z,47.57
2018-12-12T15:57:47.596Z,42.13
2018-12-12T16:00:18.758Z,39.97
2018-12-12T16:02:48.645Z,42.00
2018-12-12T16:05:18.676Z,41.77
2018-12-12T16:07:48.764Z,38.33
2018-12-12T16:10:18.589Z,40.70
2018-12-12T16:12:48.405Z,44.43
2018-12-12T16:15:18.237Z,41.43
2018-12-12T16:17:48.244Z,40.97
2018-12-12T16:20:18.750Z,42.73
2018-12-12T16:22:48.884Z,48.33
2018-12-12T16:25:18.716Z,43.10
2018-12-12T16:27:48.597Z,44.17
2018-12-12T16:30:18.836Z,47.13
2018-12-12T16:32:49.876Z,41.77
2018-12-12T16:35:21.317Z,40.97
2018-12-12T16:37:51.452Z,41.23
2018-12-12T16:40:21.477Z,41.20
2018-12-12T16:42:51.597Z,42.07
2018-12-12T16:45:21.285Z,44.50
2018-12-12T16:47:51.206Z,42.50
2018-12-12T16:50:21.044Z,43.53
2018-12-12T16:52:51.036Z,44.13
2018-12-12T16:55:20.728Z,47.43
2018-12-12T16:57:50.556Z,49.03
2018-12-12T17:00:20.643Z,53.37
2018-12-12T17:02:50.588Z,52.70
2018-12-12T17:05:20.396Z,50.93
2018-12-12T17:07:50.516Z,57.63
2018-12-12T17:10:20.524Z,50.80
2018-12-12T17:12:53.836Z,78.10
2018-12-12T17:15:25.364Z,46.53
2018-12-12T17:17:57.237Z,47.37
2018-12-12T17:20:28.388Z,50.00
2018-12-12T17:22:59.604Z,47.83
2018-12-12T17:25:35.276Z,46.80
2018-12-12T17:28:06.005Z,47.57
2018-12-12T17:30:38.044Z,49.40
2018-12-12T17:33:09.004Z,50.67
2018-12-12T17:35:39.436Z,51.17
2018-12-12T17:38:14.564Z,52.03
2018-12-12T17:40:49.716Z,52.80
2018-12-12T17:43:22.846Z,50.73
2018-12-12T17:45:57.004Z,52.93
2018-12-12T17:48:30.128Z,63.50
2018-12-12T17:51:01.325Z,54.43
2018-12-12T17:53:32.484Z,49.73
2018-12-12T17:56:02.708Z,53.97
2018-12-12T17:58:36.012Z,49.67
2018-12-12T18:01:09.941Z,49.13
2018-12-12T18:03:40.032Z,49.13
2018-12-12T18:06:10.045Z,51.37
2018-12-12T18:08:40.348Z,53.73
2018-12-12T18:11:10.580Z,53.70
2018-12-12T18:13:40.590Z,54.13
2018-12-12T18:16:12.572Z,52.07
2018-12-12T18:18:46.485Z,49.47
2018-12-12T18:21:16.380Z,49.23
2018-12-12T18:23:54.893Z,47.57
2018-12-12T18:26:28.486Z,54.90
2018-12-12T18:29:10.892Z,52.87
2018-12-12T18:32:00.572Z,52.30
2018-12-12T18:34:37.397Z,53.80
2018-12-12T18:40:17.553Z,51.17
2018-12-12T18:42:51.205Z,52.33
2018-12-12T18:45:22.369Z,51.30
2018-12-12T18:47:58.927Z,51.97
2018-12-12T18:50:34.077Z,56.97
2018-12-12T18:53:06.229Z,56.07
2018-12-12T18:55:41.596Z,51.27
2018-12-12T18:58:15.596Z,54.07
2018-12-12T19:00:47.552Z,54.43
2018-12-12T19:03:22.997Z,52.53
2018-12-12T19:05:58.255Z,54.33
2018-12-12T19:13:51.332Z,53.83
2018-12-12T19:19:16.594Z,50.80
2018-12-12T19:21:58.850Z,51.17
2018-12-12T19:24:39.408Z,52.53
2018-12-12T19:30:11.413Z,65.90
2018-12-12T19:32:59.030Z,56.73
2018-12-12T19:35:34.928Z,114.20
2018-12-12T19:40:37.270Z,108.93
2018-12-12T19:43:08.524Z,53.80
2018-12-12T19:45:49.690Z,50.73
2018-12-12T19:51:02.332Z,52.97
2018-12-12T19:53:44.316Z,57.10
2018-12-12T19:56:24.415Z,57.87
2018-12-12T19:59:11.597Z,61.03
2018-12-12T20:01:44.270Z,56.23
2018-12-12T20:04:14.291Z,58.53
2018-12-12T20:06:52.051Z,52.73
2018-12-12T20:12:14.445Z,56.47
2018-12-12T20:18:28.005Z,57.90
2018-12-12T20:21:08.396Z,63.13
2018-12-12T20:23:43.036Z,54.83
2018-12-12T20:26:26.510Z,57.67
2018-12-12T20:29:09.048Z,54.10
2018-12-12T20:57:00.590Z,89.73
2018-12-12T20:59:32.365Z,84.77
2018-12-12T21:02:02.805Z,84.37
2018-12-12T21:04:33.644Z,91.77
2018-12-12T21:07:04.037Z,83.77
2018-12-12T21:09:35.596Z,79.63
2018-12-12T21:12:05.717Z,91.03
2018-12-12T21:14:37.885Z,82.13
2018-12-12T21:17:07.606Z,84.40
2018-12-12T21:19:41.804Z,90.60
2018-12-12T21:22:16.357Z,89.27
2018-12-12T21:24:48.199Z,94.97
2018-12-12T21:27:18.725Z,86.47
2018-12-12T21:29:49.244Z,90.60
2018-12-12T21:32:20.389Z,90.60
2018-12-12T21:34:50.909Z,105.00
2018-12-12T21:37:25.868Z,102.03
2018-12-12T21:39:57.837Z,95.03
2018-12-12T21:42:28.756Z,94.57
2018-12-12T21:44:58.884Z,92.17
2018-12-12T21:47:40.366Z,105.13
2018-12-12T21:50:16.724Z,91.83
2018-12-12T21:52:53.189Z,102.37
2018-12-12T21:55:26.180Z,97.47
2018-12-12T21:57:57.356Z,101.20
2018-12-12T22:00:28.476Z,87.27
2018-12-12T22:02:58.890Z,81.07
2018-12-12T22:05:28.801Z,60.73
2018-12-12T22:08:04.239Z,63.80
2018-12-12T22:10:34.167Z,58.13
2018-12-12T22:13:08.163Z,59.23
2018-12-12T22:15:42.799Z,54.83
2018-12-12T22:18:13.042Z,55.10
2018-12-12T22:20:44.984Z,50.83
2018-12-12T22:23:16.036Z,49.57
2018-12-12T22:25:47.987Z,64.23
2018-12-12T22:28:18.291Z,75.83
2018-12-12T22:30:48.836Z,81.70
2018-12-12T22:33:19.273Z,89.13
2018-12-12T22:35:50.507Z,80.73
2018-12-12T22:38:21.137Z,82.00
2018-12-12T22:40:52.585Z,87.53
2018-12-12T22:43:23.754Z,87.47
2018-12-12T22:45:55.393Z,74.97
2018-12-12T22:48:26.545Z,63.30
2018-12-12T22:50:58.604Z,64.57
2018-12-12T22:53:29.024Z,60.10
2018-12-12T22:55:59.066Z,62.33
2018-12-12T22:58:30.367Z,52.10
2018-12-12T23:01:06.044Z,55.30
2018-12-12T23:03:37.797Z,59.03
2018-12-12T23:06:09.341Z,61.53
2018-12-12T23:08:40.286Z,59.07
2018-12-12T23:11:14.707Z,57.23
2018-12-12T23:13:48.297Z,61.20
2018-12-12T23:16:24.046Z,55.90
